createdAt,value
2023-01-13T00:00:30.468Z,8.50
2023-01-13T00:02:57.173Z,8.50
2023-01-13T00:05:24.031Z,8.50
2023-01-13T00:07:50.693Z,8.50
2023-01-13T00:10:17.394Z,8.60
2023-01-13T00:12:44.109Z,8.60
2023-01-13T00:15:10.826Z,8.50
2023-01-13T00:17:38.859Z,8.60
2023-01-13T00:20:05.535Z,8.50
2023-01-13T00:22:32.227Z,8.50
2023-01-13T00:25:01.538Z,8.50
2023-01-13T00:27:28.499Z,8.50
2023-01-13T00:29:55.249Z,8.50
2023-01-13T00:32:21.952Z,8.50
2023-01-13T00:34:48.706Z,8.60
2023-01-13T00:37:15.383Z,8.60
2023-01-13T00:39:42.049Z,8.60
2023-01-13T00:42:27.614Z,8.60
2023-01-13T00:44:54.295Z,8.60
2023-01-13T00:47:20.977Z,8.60
2023-01-13T00:49:47.646Z,8.60
2023-01-13T00:52:14.327Z,8.60
2023-01-13T00:54:41.147Z,8.60
2023-01-13T00:57:07.942Z,8.60
2023-01-13T00:59:34.609Z,8.70
2023-01-13T01:02:01.389Z,8.70
2023-01-13T01:04:28.144Z,8.70
2023-01-13T01:06:54.792Z,8.70
2023-01-13T01:09:21.473Z,8.70
2023-01-13T01:11:48.149Z,8.70
2023-01-13T01:14:14.830Z,8.70
2023-01-13T01:16:41.513Z,8.70
2023-01-13T01:19:08.202Z,8.60
2023-01-13T01:21:34.969Z,8.70
2023-01-13T01:24:01.631Z,8.70
2023-01-13T01:26:28.328Z,8.70
2023-01-13T01:28:54.967Z,8.70
2023-01-13T01:31:21.656Z,8.70
2023-01-13T01:33:48.539Z,8.60
2023-01-13T01:36:15.272Z,8.60
2023-01-13T01:38:41.957Z,8.70
2023-01-13T01:41:08.697Z,8.70
2023-01-13T01:43:53.991Z,8.70
2023-01-13T01:46:20.932Z,8.60
2023-01-13T01:48:47.792Z,8.50
2023-01-13T01:51:14.538Z,8.50
2023-01-13T01:53:41.868Z,8.40
2023-01-13T01:56:08.959Z,8.40
2023-01-13T01:58:35.917Z,8.30
2023-01-13T02:01:02.680Z,8.20
2023-01-13T02:03:29.389Z,8.20
2023-01-13T02:05:56.079Z,8.20
2023-01-13T02:08:22.815Z,8.20
2023-01-13T02:10:49.523Z,8.10
2023-01-13T02:13:16.186Z,8.10
2023-01-13T02:15:42.940Z,8.10
2023-01-13T02:18:09.605Z,8.10
2023-01-13T02:20:36.546Z,8.10
2023-01-13T02:23:03.243Z,8.10
2023-01-13T02:25:29.989Z,8.00
2023-01-13T02:27:56.689Z,7.90
2023-01-13T02:30:41.941Z,7.70
2023-01-13T02:33:08.704Z,7.60
2023-01-13T02:35:35.385Z,7.50
2023-01-13T02:38:02.214Z,7.50
2023-01-13T02:40:28.897Z,7.40
2023-01-13T02:43:14.197Z,7.50
2023-01-13T02:45:40.912Z,7.50
2023-01-13T02:48:07.615Z,7.50
2023-01-13T02:50:34.281Z,7.50
2023-01-13T02:53:00.980Z,7.50
2023-01-13T02:55:27.647Z,7.50
2023-01-13T02:57:54.395Z,7.40
2023-01-13T03:00:21.233Z,7.40
2023-01-13T03:02:47.809Z,7.40
2023-01-13T03:05:14.442Z,7.40
2023-01-13T03:07:40.929Z,7.30
2023-01-13T03:10:07.467Z,7.30
2023-01-13T03:12:33.989Z,7.20
2023-01-13T03:15:00.459Z,7.20
2023-01-13T03:17:26.957Z,7.10
2023-01-13T03:19:53.462Z,7.10
2023-01-13T03:22:19.988Z,7.10
2023-01-13T03:24:46.487Z,7.10
2023-01-13T03:27:13.040Z,7.00
2023-01-13T03:29:39.575Z,7.00
2023-01-13T03:32:06.041Z,6.90
2023-01-13T03:34:32.612Z,6.90
2023-01-13T03:36:59.113Z,6.80
2023-01-13T03:39:25.591Z,6.80
2023-01-13T03:41:53.274Z,6.80
2023-01-13T03:44:22.802Z,6.70
2023-01-13T03:46:49.349Z,6.60
2023-01-13T03:49:15.796Z,6.60
2023-01-13T03:51:42.687Z,6.60
2023-01-13T03:54:09.276Z,6.60
2023-01-13T03:56:35.773Z,6.70
2023-01-13T03:59:02.280Z,6.70
2023-01-13T04:01:28.860Z,6.70
2023-01-13T04:03:55.462Z,6.60
2023-01-13T04:06:21.993Z,6.60
2023-01-13T04:08:48.473Z,6.60
2023-01-13T04:11:15.057Z,6.60
2023-01-13T04:13:41.716Z,6.50
2023-01-13T04:16:08.248Z,6.50
2023-01-13T04:18:34.750Z,6.50
2023-01-13T04:21:01.289Z,6.50
2023-01-13T04:23:28.056Z,6.50
2023-01-13T04:25:54.550Z,6.40
2023-01-13T04:28:21.072Z,6.40
2023-01-13T04:30:47.611Z,6.40
2023-01-13T04:33:14.294Z,6.40
2023-01-13T04:35:41.144Z,6.40
2023-01-13T04:38:07.915Z,6.40
2023-01-13T04:40:34.386Z,6.40
2023-01-13T04:43:00.894Z,6.40
2023-01-13T04:45:27.404Z,6.40
2023-01-13T04:47:54.024Z,6.40
2023-01-13T04:50:20.542Z,6.40
2023-01-13T04:52:47.076Z,6.50
2023-01-13T04:55:13.558Z,6.50
2023-01-13T04:57:40.089Z,6.40
2023-01-13T05:00:06.704Z,6.40
2023-01-13T05:02:33.283Z,6.40
2023-01-13T05:04:59.882Z,6.40
2023-01-13T05:07:26.412Z,6.40
2023-01-13T05:09:52.923Z,6.40
2023-01-13T05:12:38.134Z,6.40
2023-01-13T05:15:23.447Z,6.40
2023-01-13T05:17:49.945Z,6.40
2023-01-13T05:20:16.410Z,6.40
2023-01-13T05:23:01.745Z,6.40
2023-01-13T05:25:28.289Z,6.50
2023-01-13T05:27:54.956Z,6.50
2023-01-13T05:30:21.512Z,6.50
2023-01-13T05:32:48.068Z,6.50
2023-01-13T05:35:15.974Z,6.50
2023-01-13T05:37:42.854Z,6.40
2023-01-13T05:40:27.827Z,6.40
2023-01-13T05:43:13.296Z,6.50
2023-01-13T05:45:39.871Z,6.50
2023-01-13T05:48:06.419Z,6.50
2023-01-13T05:50:32.903Z,6.50
2023-01-13T05:52:59.404Z,6.50
2023-01-13T05:55:25.905Z,6.50
2023-01-13T05:57:52.377Z,6.40
2023-01-13T06:00:18.863Z,6.40
2023-01-13T06:02:45.452Z,6.40
2023-01-13T06:05:12.020Z,6.40
2023-01-13T06:07:38.484Z,6.30
2023-01-13T06:10:04.955Z,6.30
2023-01-13T06:12:31.504Z,6.30
2023-01-13T06:14:58.048Z,6.30
2023-01-13T06:17:24.563Z,6.30
2023-01-13T06:19:51.072Z,6.20
2023-01-13T06:22:17.576Z,6.20
2023-01-13T06:24:44.178Z,6.20
2023-01-13T06:27:10.719Z,6.20
2023-01-13T06:29:37.316Z,6.20
2023-01-13T06:32:03.822Z,6.20
2023-01-13T06:34:30.312Z,6.20
2023-01-13T06:36:56.786Z,6.20
2023-01-13T06:39:23.665Z,6.30
2023-01-13T06:42:08.947Z,6.20
2023-01-13T06:44:35.515Z,6.20
2023-01-13T06:47:02.079Z,6.30
2023-01-13T06:49:28.675Z,6.30
2023-01-13T06:51:55.181Z,6.30
2023-01-13T06:54:21.712Z,6.30
2023-01-13T06:56:48.191Z,6.40
2023-01-13T06:59:14.678Z,6.40
2023-01-13T07:01:41.274Z,6.40
2023-01-13T07:04:07.882Z,6.50
2023-01-13T07:06:34.367Z,6.50
2023-01-13T07:09:00.872Z,6.50
2023-01-13T07:11:27.370Z,6.50
2023-01-13T07:14:12.683Z,6.60
2023-01-13T07:16:39.969Z,6.50
2023-01-13T07:19:06.533Z,6.50
2023-01-13T07:21:33.639Z,6.50
2023-01-13T07:24:00.163Z,6.50
2023-01-13T07:26:26.748Z,6.50
2023-01-13T07:28:53.322Z,6.50
2023-01-13T07:31:21.018Z,6.50
2023-01-13T07:33:47.522Z,6.50
2023-01-13T07:36:14.014Z,6.50
2023-01-13T07:38:40.769Z,6.40
2023-01-13T07:41:26.270Z,6.40
2023-01-13T07:43:52.786Z,6.40
2023-01-13T07:46:19.287Z,6.40
2023-01-13T07:48:45.760Z,6.40
2023-01-13T07:51:12.307Z,6.50
2023-01-13T07:53:38.825Z,6.50
2023-01-13T07:56:05.353Z,6.40
2023-01-13T07:58:31.901Z,6.40
2023-01-13T08:00:58.669Z,6.40
2023-01-13T08:03:25.303Z,6.40
2023-01-13T08:05:51.829Z,6.40
2023-01-13T08:08:20.664Z,6.40
2023-01-13T08:10:47.329Z,6.40
2023-01-13T08:13:20.805Z,6.40
2023-01-13T08:15:47.378Z,6.30
2023-01-13T08:18:13.891Z,6.40
2023-01-13T08:20:40.386Z,6.30
2023-01-13T08:23:07.522Z,6.30
2023-01-13T08:25:34.164Z,6.30
2023-01-13T08:28:00.739Z,6.30
2023-01-13T08:30:27.508Z,6.40
2023-01-13T08:32:54.081Z,6.40
2023-01-13T08:35:20.564Z,6.50
2023-01-13T08:37:47.070Z,6.50
2023-01-13T08:40:13.622Z,6.50
2023-01-13T08:42:40.111Z,6.60
2023-01-13T08:45:06.600Z,6.60
2023-01-13T08:47:33.081Z,6.50
2023-01-13T08:49:59.581Z,6.50
2023-01-13T08:52:26.124Z,6.50
2023-01-13T08:54:52.639Z,6.60
2023-01-13T08:57:22.253Z,6.60
2023-01-13T08:59:48.821Z,6.60
2023-01-13T09:02:15.573Z,6.60
2023-01-13T09:04:42.332Z,6.60
2023-01-13T09:07:08.869Z,6.60
2023-01-13T09:09:35.346Z,6.60
2023-01-13T09:12:20.832Z,6.60
2023-01-13T09:14:47.383Z,6.60
2023-01-13T09:17:14.608Z,6.70
2023-01-13T09:19:41.348Z,6.70
2023-01-13T09:22:07.870Z,6.70
2023-01-13T09:24:34.344Z,6.70
2023-01-13T09:27:01.157Z,6.70
2023-01-13T09:29:27.737Z,6.70
2023-01-13T09:31:54.284Z,6.70
2023-01-13T09:34:39.805Z,6.70
2023-01-13T09:37:06.360Z,6.70
2023-01-13T09:39:32.885Z,6.70
2023-01-13T09:42:18.165Z,6.70
2023-01-13T09:44:44.667Z,6.70
2023-01-13T09:47:12.714Z,6.70
2023-01-13T09:49:40.577Z,6.70
2023-01-13T09:52:07.080Z,6.70
2023-01-13T09:54:33.567Z,6.80
2023-01-13T09:57:00.110Z,6.80
2023-01-13T09:59:27.049Z,6.80
2023-01-13T10:01:53.561Z,6.80
2023-01-13T10:04:20.127Z,6.70
2023-01-13T10:06:46.655Z,6.70
2023-01-13T10:09:13.142Z,6.70
2023-01-13T10:11:58.532Z,6.60
2023-01-13T10:14:25.124Z,6.60
2023-01-13T10:16:52.126Z,6.60
2023-01-13T10:19:18.697Z,6.60
2023-01-13T10:21:45.226Z,6.70
2023-01-13T10:24:11.760Z,6.70
2023-01-13T10:26:38.270Z,6.70
2023-01-13T10:29:04.819Z,6.70
2023-01-13T10:31:31.791Z,6.70
2023-01-13T10:33:58.497Z,6.70
2023-01-13T10:36:25.012Z,6.70
2023-01-13T10:38:51.783Z,6.70
2023-01-13T10:41:18.330Z,6.80
2023-01-13T10:43:44.878Z,6.80
2023-01-13T10:46:11.474Z,6.80
2023-01-13T10:48:38.089Z,6.80
2023-01-13T10:51:04.749Z,6.80
2023-01-13T10:53:31.277Z,6.90
2023-01-13T10:55:57.785Z,6.90
2023-01-13T10:58:24.297Z,6.90
2023-01-13T11:00:50.799Z,7.00
2023-01-13T11:03:17.397Z,7.00
2023-01-13T11:05:43.881Z,7.10
2023-01-13T11:08:10.362Z,7.10
2023-01-13T11:10:38.367Z,7.10
2023-01-13T11:13:08.428Z,7.10
2023-01-13T11:15:34.971Z,7.20
2023-01-13T11:18:01.587Z,7.20
2023-01-13T11:20:32.326Z,7.30
2023-01-13T11:22:59.934Z,7.30
2023-01-13T11:25:32.796Z,7.40
2023-01-13T11:27:59.310Z,7.40
2023-01-13T11:30:25.789Z,7.40
2023-01-13T11:32:52.270Z,7.40
2023-01-13T11:35:18.874Z,7.30
2023-01-13T11:37:45.440Z,7.30
2023-01-13T11:40:12.036Z,7.30
2023-01-13T11:42:38.541Z,7.30
2023-01-13T11:45:05.025Z,7.30
2023-01-13T11:47:31.551Z,7.30
2023-01-13T11:49:58.146Z,7.40
2023-01-13T11:52:25.120Z,7.40
2023-01-13T11:54:51.647Z,7.40
2023-01-13T11:57:18.138Z,7.50
2023-01-13T11:59:44.838Z,7.50
2023-01-13T12:02:11.400Z,7.50
2023-01-13T12:04:37.909Z,7.50
2023-01-13T12:07:07.316Z,7.40
2023-01-13T12:09:34.034Z,7.40
2023-01-13T12:12:19.223Z,7.40
2023-01-13T12:14:45.814Z,7.40
2023-01-13T12:17:12.325Z,7.40
2023-01-13T12:19:38.835Z,7.50
2023-01-13T12:22:05.479Z,7.60
2023-01-13T12:24:32.065Z,7.70
2023-01-13T12:26:58.570Z,7.60
2023-01-13T12:29:25.076Z,7.60
2023-01-13T12:31:51.630Z,7.50
2023-01-13T12:34:18.193Z,7.50
2023-01-13T12:36:44.726Z,7.50
2023-01-13T12:39:11.208Z,7.50
2023-01-13T12:41:38.677Z,7.50
2023-01-13T12:44:17.248Z,7.40
2023-01-13T12:46:43.992Z,7.30
2023-01-13T12:49:10.463Z,7.20
2023-01-13T12:51:37.520Z,7.00
2023-01-13T12:54:04.037Z,6.90
2023-01-13T12:56:30.578Z,6.80
2023-01-13T12:58:57.144Z,6.80
2023-01-13T13:01:23.681Z,6.70
2023-01-13T13:03:50.369Z,6.60
2023-01-13T13:06:16.898Z,6.50
2023-01-13T13:08:43.485Z,6.50
2023-01-13T13:11:29.990Z,6.50
2023-01-13T13:13:56.478Z,6.40
2023-01-13T13:16:23.018Z,6.30
2023-01-13T13:18:49.504Z,6.20
2023-01-13T13:21:16.090Z,6.20
2023-01-13T13:23:48.925Z,6.10
2023-01-13T13:26:15.934Z,6.00
2023-01-13T13:28:42.390Z,5.60
2023-01-13T13:31:08.917Z,5.50
2023-01-13T13:33:35.451Z,5.40
2023-01-13T13:36:02.700Z,5.20
2023-01-13T13:38:47.893Z,5.10
2023-01-13T13:41:33.490Z,5.00
2023-01-13T13:44:19.096Z,4.90
2023-01-13T13:46:48.531Z,4.80
2023-01-13T13:49:15.043Z,4.70
2023-01-13T13:51:42.458Z,4.70
2023-01-13T13:54:08.991Z,4.70
2023-01-13T13:56:35.662Z,4.80
2023-01-13T13:59:02.203Z,4.90
2023-01-13T14:01:28.771Z,4.90
2023-01-13T14:03:55.309Z,5.10
2023-01-13T14:06:22.005Z,5.10
2023-01-13T14:08:48.505Z,5.30
2023-01-13T14:11:15.009Z,5.40
2023-01-13T14:13:41.515Z,5.50
2023-01-13T14:16:08.049Z,5.50
2023-01-13T14:18:34.586Z,5.60
2023-01-13T14:21:01.088Z,5.60
2023-01-13T14:23:27.648Z,5.60
2023-01-13T14:25:54.140Z,5.60
2023-01-13T14:28:20.729Z,5.60
2023-01-13T14:30:47.405Z,5.70
2023-01-13T14:33:13.916Z,5.70
2023-01-13T14:35:40.404Z,5.70
2023-01-13T14:38:06.952Z,5.80
2023-01-13T14:40:33.497Z,5.80
2023-01-13T14:43:00.041Z,5.80
2023-01-13T14:45:26.895Z,5.80
2023-01-13T14:47:53.436Z,5.80
2023-01-13T14:50:19.950Z,5.80
2023-01-13T14:52:46.579Z,5.80
2023-01-13T14:55:13.137Z,5.80
2023-01-13T14:57:41.266Z,5.90
2023-01-13T15:00:08.209Z,5.90
2023-01-13T15:02:34.821Z,5.90
2023-01-13T15:05:01.345Z,5.90
2023-01-13T15:07:27.917Z,5.90
2023-01-13T15:09:54.485Z,5.90
2023-01-13T15:12:20.995Z,5.90
2023-01-13T15:14:47.479Z,5.90
2023-01-13T15:17:13.990Z,5.90
2023-01-13T15:19:40.515Z,5.80
2023-01-13T15:22:07.010Z,5.70
2023-01-13T15:24:33.475Z,5.70
2023-01-13T15:27:00.123Z,5.70
2023-01-13T15:29:26.738Z,5.60
2023-01-13T15:31:53.405Z,5.60
2023-01-13T15:34:19.998Z,5.60
2023-01-13T15:36:46.485Z,5.60
2023-01-13T15:39:12.979Z,5.70
2023-01-13T15:41:58.316Z,5.70
2023-01-13T15:44:43.679Z,5.70
2023-01-13T15:47:10.190Z,5.70
2023-01-13T15:49:36.689Z,5.70
2023-01-13T15:52:03.355Z,5.70
2023-01-13T15:54:30.605Z,5.80
2023-01-13T15:56:57.102Z,5.80
2023-01-13T15:59:23.640Z,5.80
2023-01-13T16:01:50.191Z,5.80
2023-01-13T16:04:16.844Z,5.80
2023-01-13T16:06:43.379Z,5.80
2023-01-13T16:09:09.906Z,5.80
2023-01-13T16:11:36.381Z,5.80
2023-01-13T16:14:02.892Z,5.90
2023-01-13T16:16:29.501Z,5.90
2023-01-13T16:18:56.170Z,5.90
2023-01-13T16:21:22.710Z,5.90
2023-01-13T16:23:49.289Z,5.90
2023-01-13T16:26:15.789Z,5.90
2023-01-13T16:28:42.263Z,5.90
2023-01-13T16:31:08.869Z,6.00
2023-01-13T16:33:35.424Z,6.00
2023-01-13T16:36:10.296Z,6.00
2023-01-13T16:38:39.404Z,6.00
2023-01-13T16:41:07.201Z,6.00
2023-01-13T16:43:33.770Z,6.00
2023-01-13T16:46:00.269Z,6.10
2023-01-13T16:48:26.819Z,6.10
2023-01-13T16:50:53.474Z,6.10
2023-01-13T16:53:19.973Z,6.10
2023-01-13T16:55:46.483Z,6.10
2023-01-13T16:58:13.000Z,6.10
2023-01-13T17:00:39.506Z,6.00
2023-01-13T17:03:06.039Z,6.10
2023-01-13T17:05:32.629Z,6.10
2023-01-13T17:07:59.137Z,6.10
2023-01-13T17:10:25.716Z,6.10
2023-01-13T17:12:52.255Z,6.10
2023-01-13T17:15:18.775Z,6.10
2023-01-13T17:17:47.307Z,6.10
2023-01-13T17:20:13.959Z,6.00
2023-01-13T17:22:41.339Z,5.90
2023-01-13T17:25:07.951Z,5.90
2023-01-13T17:27:34.463Z,5.90
2023-01-13T17:30:01.015Z,5.80
2023-01-13T17:32:27.665Z,5.80
2023-01-13T17:34:54.184Z,5.90
2023-01-13T17:37:20.652Z,5.90
2023-01-13T17:39:48.365Z,5.90
2023-01-13T17:42:14.911Z,5.90
2023-01-13T17:44:41.827Z,5.90
2023-01-13T17:47:08.483Z,5.90
2023-01-13T17:49:34.992Z,5.90
2023-01-13T17:52:01.499Z,5.90
2023-01-13T17:54:28.045Z,5.90
2023-01-13T17:56:56.384Z,5.90
2023-01-13T17:59:24.176Z,5.90
2023-01-13T18:01:50.894Z,5.90
2023-01-13T18:04:17.446Z,5.90
2023-01-13T18:06:43.935Z,5.90
2023-01-13T18:09:10.462Z,5.90
2023-01-13T18:11:36.972Z,5.90
2023-01-13T18:14:03.534Z,5.90
2023-01-13T18:16:30.402Z,5.90
2023-01-13T18:19:16.012Z,5.80
2023-01-13T18:22:01.336Z,5.90
2023-01-13T18:24:46.284Z,5.80
2023-01-13T18:27:19.748Z,5.80
2023-01-13T18:29:46.297Z,5.80
2023-01-13T18:32:12.806Z,5.80
2023-01-13T18:34:39.308Z,5.80
2023-01-13T18:37:05.788Z,5.80
2023-01-13T18:39:32.295Z,5.80
2023-01-13T18:42:17.581Z,5.90
2023-01-13T18:44:44.100Z,5.90
2023-01-13T18:47:10.619Z,5.90
2023-01-13T18:49:37.169Z,6.00
2023-01-13T18:52:03.679Z,6.00
2023-01-13T18:54:30.160Z,6.00
2023-01-13T18:56:57.197Z,6.10
2023-01-13T18:59:23.843Z,6.10
2023-01-13T19:01:50.530Z,6.10
2023-01-13T19:04:17.109Z,6.10
2023-01-13T19:06:48.220Z,6.10
2023-01-13T19:09:14.797Z,6.10
2023-01-13T19:11:42.391Z,6.10
2023-01-13T19:14:08.905Z,6.10
2023-01-13T19:16:35.417Z,6.10
2023-01-13T19:19:01.911Z,6.10
2023-01-13T19:21:28.433Z,6.10
2023-01-13T19:23:55.012Z,6.10
2023-01-13T19:26:21.528Z,6.20
2023-01-13T19:28:48.551Z,6.10
2023-01-13T19:31:17.178Z,6.20
2023-01-13T19:33:46.035Z,6.20
2023-01-13T19:36:12.520Z,6.20
2023-01-13T19:38:39.053Z,6.20
2023-01-13T19:41:10.695Z,6.20
2023-01-13T19:43:56.315Z,6.20
2023-01-13T19:46:22.920Z,6.20
2023-01-13T19:48:49.406Z,6.30
2023-01-13T19:51:15.935Z,6.30
2023-01-13T19:53:42.521Z,6.30
2023-01-13T19:56:09.002Z,6.30
2023-01-13T19:58:35.725Z,6.30
2023-01-13T20:01:09.665Z,6.20
2023-01-13T20:03:37.781Z,6.30
2023-01-13T20:06:04.307Z,6.30
2023-01-13T20:08:30.788Z,6.30
2023-01-13T20:11:17.295Z,6.30
2023-01-13T20:13:43.764Z,6.30
2023-01-13T20:16:10.286Z,6.30
2023-01-13T20:18:37.118Z,6.30
2023-01-13T20:21:03.830Z,6.30
2023-01-13T20:23:30.319Z,6.30
2023-01-13T20:25:56.813Z,6.30
2023-01-13T20:28:23.793Z,6.40
2023-01-13T20:30:50.370Z,6.40
2023-01-13T20:33:17.106Z,6.40
2023-01-13T20:35:45.131Z,6.40
2023-01-13T20:38:11.629Z,6.40
2023-01-13T20:40:38.109Z,6.40
2023-01-13T20:43:05.259Z,6.40
2023-01-13T20:45:31.840Z,6.40
2023-01-13T20:47:58.393Z,6.40
2023-01-13T20:50:24.872Z,6.50
2023-01-13T20:52:52.475Z,6.40
2023-01-13T20:55:19.033Z,6.50
2023-01-13T20:57:48.705Z,6.50
2023-01-13T21:00:15.202Z,6.50
2023-01-13T21:02:41.881Z,6.50
2023-01-13T21:05:09.710Z,6.50
2023-01-13T21:07:36.244Z,6.50
2023-01-13T21:10:02.740Z,6.50
2023-01-13T21:12:48.214Z,6.50
2023-01-13T21:15:17.507Z,6.50
2023-01-13T21:18:02.962Z,6.50
2023-01-13T21:20:33.408Z,6.50
2023-01-13T21:23:00.180Z,6.50
2023-01-13T21:25:26.700Z,6.50
2023-01-13T21:27:53.200Z,6.50
2023-01-13T21:30:19.754Z,6.50
2023-01-13T21:32:46.596Z,6.50
2023-01-13T21:35:13.185Z,6.50
2023-01-13T21:37:39.683Z,6.50
2023-01-13T21:40:06.252Z,6.50
2023-01-13T21:42:51.702Z,6.50
2023-01-13T21:45:37.061Z,6.50
2023-01-13T21:48:03.608Z,6.50
2023-01-13T21:50:30.138Z,6.50
2023-01-13T21:52:56.650Z,6.40
2023-01-13T21:55:25.125Z,6.40
2023-01-13T21:57:51.734Z,6.40
2023-01-13T22:00:19.046Z,6.40
2023-01-13T22:02:45.710Z,6.40
2023-01-13T22:05:12.290Z,6.40
2023-01-13T22:07:38.809Z,6.40
2023-01-13T22:10:05.301Z,6.40
2023-01-13T22:12:32.392Z,6.40
2023-01-13T22:14:58.920Z,6.40
2023-01-13T22:17:25.490Z,6.30
2023-01-13T22:19:57.002Z,6.30
2023-01-13T22:22:23.563Z,6.30
2023-01-13T22:24:50.051Z,6.30
2023-01-13T22:27:16.829Z,6.30
2023-01-13T22:29:43.719Z,6.30
2023-01-13T22:32:10.207Z,6.30
2023-01-13T22:34:36.765Z,6.30
2023-01-13T22:37:03.248Z,6.30
2023-01-13T22:39:29.771Z,6.40
2023-01-13T22:41:56.276Z,6.40
2023-01-13T22:44:22.743Z,6.40
2023-01-13T22:46:49.260Z,6.40
2023-01-13T22:49:15.745Z,6.40
2023-01-13T22:51:42.249Z,6.40
2023-01-13T22:54:08.769Z,6.40
2023-01-13T22:56:35.273Z,6.40
2023-01-13T22:59:01.780Z,6.40
2023-01-13T23:01:28.319Z,6.40
2023-01-13T23:03:54.984Z,6.40
2023-01-13T23:06:21.539Z,6.40
2023-01-13T23:08:48.036Z,6.40
2023-01-13T23:11:14.846Z,6.40
2023-01-13T23:13:43.099Z,6.50
2023-01-13T23:16:09.660Z,6.50
2023-01-13T23:18:36.140Z,6.50
2023-01-13T23:21:02.617Z,6.50
2023-01-13T23:23:29.416Z,6.50
2023-01-13T23:25:56.423Z,6.50
2023-01-13T23:28:22.942Z,6.40
2023-01-13T23:30:49.512Z,6.50
2023-01-13T23:33:16.045Z,6.50
2023-01-13T23:35:42.579Z,6.50
2023-01-13T23:38:09.051Z,6.50
2023-01-13T23:40:35.552Z,6.50
2023-01-13T23:43:02.053Z,6.50
2023-01-13T23:45:28.546Z,6.50
2023-01-13T23:47:55.749Z,6.50
2023-01-13T23:50:22.517Z,6.50
2023-01-13T23:52:49.076Z,6.50
2023-01-13T23:55:15.526Z,6.50
2023-01-13T23:57:42.660Z,6.50
